sensor_id;sensor_type;location;lat;lon;timestamp;temperature;humidity
25328;DHT22;13279;51.300;12.394;2022-09-09T00:01:51;14.80;99.90
25328;DHT22;13279;51.300;12.394;2022-09-09T00:04:26;14.80;99.90
25328;DHT22;13279;51.300;12.394;2022-09-09T00:07:01;14.70;99.90
25328;DHT22;13279;51.300;12.394;2022-09-09T00:09:35;14.70;99.90
25328;DHT22;13279;51.300;12.394;2022-09-09T00:12:11;14.70;99.90
25328;DHT22;13279;51.300;12.394;2022-09-09T00:14:47;14.60;99.90
25328;DHT22;13279;51.300;12.394;2022-09-09T00:17:30;14.50;99.90
25328;DHT22;13279;51.300;12.394;2022-09-09T00:20:04;14.50;99.90
25328;DHT22;13279;51.300;12.394;2022-09-09T00:22:32;14.40;99.90
25328;DHT22;13279;51.300;12.394;2022-09-09T00:25:08;14.40;99.90
25328;DHT22;13279;51.300;12.394;2022-09-09T00:27:41;14.40;99.90
25328;DHT22;13279;51.300;12.394;2022-09-09T00:30:16;14.40;99.90
25328;DHT22;13279;51.300;12.394;2022-09-09T00:32:46;14.30;99.90
25328;DHT22;13279;51.300;12.394;2022-09-09T00:35:18;14.30;99.90
25328;DHT22;13279;51.300;12.394;2022-09-09T00:37:50;14.30;99.90
25328;DHT22;13279;51.300;12.394;2022-09-09T00:40:24;14.30;99.90
25328;DHT22;13279;51.300;12.394;2022-09-09T00:43:02;14.30;99.90
25328;DHT22;13279;51.300;12.394;2022-09-09T00:48:52;14.30;99.90
25328;DHT22;13279;51.300;12.394;2022-09-09T00:51:30;14.30;99.90
25328;DHT22;13279;51.300;12.394;2022-09-09T00:57:07;14.30;99.90
25328;DHT22;13279;51.300;12.394;2022-09-09T00:59:47;14.30;99.90
25328;DHT22;13279;51.300;12.394;2022-09-09T01:02:26;14.30;99.90
25328;DHT22;13279;51.300;12.394;2022-09-09T01:05:00;14.30;99.90
25328;DHT22;13279;51.300;12.394;2022-09-09T01:07:30;14.30;99.90
25328;DHT22;13279;51.300;12.394;2022-09-09T01:09:59;14.30;99.90
25328;DHT22;13279;51.300;12.394;2022-09-09T01:12:38;14.30;99.90
25328;DHT22;13279;51.300;12.394;2022-09-09T01:15:12;14.30;99.90
25328;DHT22;13279;51.300;12.394;2022-09-09T01:17:51;14.30;99.90
25328;DHT22;13279;51.300;12.394;2022-09-09T01:20:24;14.30;99.90
25328;DHT22;13279;51.300;12.394;2022-09-09T01:23:10;14.30;99.90
25328;DHT22;13279;51.300;12.394;2022-09-09T01:26:08;14.30;99.90
25328;DHT22;13279;51.300;12.394;2022-09-09T01:28:39;14.30;99.90
25328;DHT22;13279;51.300;12.394;2022-09-09T01:31:15;14.30;99.90
25328;DHT22;13279;51.300;12.394;2022-09-09T01:33:47;14.20;99.90
25328;DHT22;13279;51.300;12.394;2022-09-09T01:36:22;14.20;99.90
25328;DHT22;13279;51.300;12.394;2022-09-09T01:38:52;14.20;99.90
25328;DHT22;13279;51.300;12.394;2022-09-09T01:41:22;14.10;99.90
25328;DHT22;13279;51.300;12.394;2022-09-09T01:44:09;14.10;99.90
25328;DHT22;13279;51.300;12.394;2022-09-09T01:46:40;14.10;99.90
25328;DHT22;13279;51.300;12.394;2022-09-09T01:49:14;14.10;99.90
25328;DHT22;13279;51.300;12.394;2022-09-09T01:51:43;14.10;99.90
25328;DHT22;13279;51.300;12.394;2022-09-09T01:54:13;14.10;99.90
25328;DHT22;13279;51.300;12.394;2022-09-09T01:56:51;14.10;99.90
25328;DHT22;13279;51.300;12.394;2022-09-09T01:59:33;14.00;99.90
25328;DHT22;13279;51.300;12.394;2022-09-09T02:02:10;14.10;99.90
25328;DHT22;13279;51.300;12.394;2022-09-09T02:04:47;14.00;99.90
25328;DHT22;13279;51.300;12.394;2022-09-09T02:07:41;14.10;99.90
25328;DHT22;13279;51.300;12.394;2022-09-09T02:10:25;14.10;99.90
25328;DHT22;13279;51.300;12.394;2022-09-09T02:13:10;14.10;99.90
25328;DHT22;13279;51.300;12.394;2022-09-09T02:15:44;14.10;99.90
25328;DHT22;13279;51.300;12.394;2022-09-09T02:18:15;14.10;99.90
25328;DHT22;13279;51.300;12.394;2022-09-09T02:20:46;14.10;99.90
25328;DHT22;13279;51.300;12.394;2022-09-09T02:23:15;14.10;99.90
25328;DHT22;13279;51.300;12.394;2022-09-09T02:25:46;14.10;99.90
25328;DHT22;13279;51.300;12.394;2022-09-09T02:28:22;14.10;99.90
25328;DHT22;13279;51.300;12.394;2022-09-09T02:30:52;14.10;99.90
25328;DHT22;13279;51.300;12.394;2022-09-09T02:33:26;14.10;99.90
25328;DHT22;13279;51.300;12.394;2022-09-09T02:35:55;14.10;99.90
25328;DHT22;13279;51.300;12.394;2022-09-09T02:38:33;14.10;99.90
25328;DHT22;13279;51.300;12.394;2022-09-09T02:41:08;14.10;99.90
25328;DHT22;13279;51.300;12.394;2022-09-09T02:43:37;14.00;99.90
25328;DHT22;13279;51.300;12.394;2022-09-09T02:46:20;14.00;99.90
25328;DHT22;13279;51.300;12.394;2022-09-09T02:48:55;14.00;99.90
25328;DHT22;13279;51.300;12.394;2022-09-09T02:51:37;14.00;99.90
25328;DHT22;13279;51.300;12.394;2022-09-09T02:54:14;14.00;99.90
25328;DHT22;13279;51.300;12.394;2022-09-09T02:56:47;14.00;99.90
25328;DHT22;13279;51.300;12.394;2022-09-09T02:59:20;14.00;99.90
25328;DHT22;13279;51.300;12.394;2022-09-09T03:01:48;14.00;99.90
25328;DHT22;13279;51.300;12.394;2022-09-09T03:04:16;14.00;99.90
25328;DHT22;13279;51.300;12.394;2022-09-09T03:06:43;14.00;99.90
25328;DHT22;13279;51.300;12.394;2022-09-09T03:09:18;13.90;99.90
25328;DHT22;13279;51.300;12.394;2022-09-09T03:11:45;13.90;99.90
25328;DHT22;13279;51.300;12.394;2022-09-09T03:14:14;13.90;99.90
25328;DHT22;13279;51.300;12.394;2022-09-09T03:16:44;13.90;99.90
25328;DHT22;13279;51.300;12.394;2022-09-09T03:19:12;13.90;99.90
25328;DHT22;13279;51.300;12.394;2022-09-09T03:21:40;13.90;99.90
25328;DHT22;13279;51.300;12.394;2022-09-09T03:24:08;13.80;99.90
25328;DHT22;13279;51.300;12.394;2022-09-09T03:26:35;13.80;99.90
25328;DHT22;13279;51.300;12.394;2022-09-09T03:29:05;13.80;99.90
25328;DHT22;13279;51.300;12.394;2022-09-09T03:31:33;13.80;99.90
25328;DHT22;13279;51.300;12.394;2022-09-09T03:34:04;13.80;99.90
25328;DHT22;13279;51.300;12.394;2022-09-09T03:36:33;13.80;99.90
25328;DHT22;13279;51.300;12.394;2022-09-09T03:39:02;13.80;99.90
25328;DHT22;13279;51.300;12.394;2022-09-09T03:41:30;13.80;99.90
25328;DHT22;13279;51.300;12.394;2022-09-09T03:44:00;13.80;99.90
25328;DHT22;13279;51.300;12.394;2022-09-09T03:46:32;13.80;99.90
25328;DHT22;13279;51.300;12.394;2022-09-09T03:49:00;13.70;99.90
25328;DHT22;13279;51.300;12.394;2022-09-09T03:51:31;13.70;99.90
25328;DHT22;13279;51.300;12.394;2022-09-09T03:54:24;13.70;99.90
25328;DHT22;13279;51.300;12.394;2022-09-09T03:56:52;13.70;99.90
25328;DHT22;13279;51.300;12.394;2022-09-09T03:59:21;13.70;99.90
25328;DHT22;13279;51.300;12.394;2022-09-09T04:01:49;13.60;99.90
25328;DHT22;13279;51.300;12.394;2022-09-09T04:04:17;13.60;99.90
25328;DHT22;13279;51.300;12.394;2022-09-09T04:06:47;13.60;99.90
25328;DHT22;13279;51.300;12.394;2022-09-09T04:09:17;13.60;99.90
25328;DHT22;13279;51.300;12.394;2022-09-09T04:11:44;13.60;99.90
25328;DHT22;13279;51.300;12.394;2022-09-09T04:14:13;13.60;99.90
25328;DHT22;13279;51.300;12.394;2022-09-09T04:16:41;13.60;99.90
25328;DHT22;13279;51.300;12.394;2022-09-09T04:19:12;13.60;99.90
25328;DHT22;13279;51.300;12.394;2022-09-09T04:21:42;13.60;99.90
25328;DHT22;13279;51.300;12.394;2022-09-09T04:24:10;13.60;99.90
25328;DHT22;13279;51.300;12.394;2022-09-09T04:26:38;13.60;99.90
25328;DHT22;13279;51.300;12.394;2022-09-09T04:29:06;13.70;99.90
25328;DHT22;13279;51.300;12.394;2022-09-09T04:31:34;13.60;99.90
25328;DHT22;13279;51.300;12.394;2022-09-09T04:34:01;13.70;99.90
25328;DHT22;13279;51.300;12.394;2022-09-09T04:36:31;13.70;99.90
25328;DHT22;13279;51.300;12.394;2022-09-09T04:39:03;13.70;99.90
25328;DHT22;13279;51.300;12.394;2022-09-09T04:41:33;13.70;99.90
25328;DHT22;13279;51.300;12.394;2022-09-09T04:44:03;13.70;99.90
25328;DHT22;13279;51.300;12.394;2022-09-09T04:46:32;13.70;99.90
25328;DHT22;13279;51.300;12.394;2022-09-09T04:49:00;13.70;99.90
25328;DHT22;13279;51.300;12.394;2022-09-09T04:51:30;13.80;99.90
25328;DHT22;13279;51.300;12.394;2022-09-09T04:53:58;13.70;99.90
25328;DHT22;13279;51.300;12.394;2022-09-09T04:56:26;13.70;99.90
25328;DHT22;13279;51.300;12.394;2022-09-09T04:58:59;13.80;99.90
25328;DHT22;13279;51.300;12.394;2022-09-09T05:01:39;13.80;99.90
25328;DHT22;13279;51.300;12.394;2022-09-09T05:04:07;13.80;99.90
25328;DHT22;13279;51.300;12.394;2022-09-09T05:06:34;13.90;99.90
25328;DHT22;13279;51.300;12.394;2022-09-09T05:09:04;13.90;99.90
25328;DHT22;13279;51.300;12.394;2022-09-09T05:11:32;14.00;99.90
25328;DHT22;13279;51.300;12.394;2022-09-09T05:14:10;14.00;99.90
25328;DHT22;13279;51.300;12.394;2022-09-09T05:16:38;14.10;99.90
25328;DHT22;13279;51.300;12.394;2022-09-09T05:19:07;14.10;99.90
25328;DHT22;13279;51.300;12.394;2022-09-09T05:21:43;14.20;99.90
25328;DHT22;13279;51.300;12.394;2022-09-09T05:24:12;14.30;99.90
25328;DHT22;13279;51.300;12.394;2022-09-09T05:26:40;14.30;99.90
25328;DHT22;13279;51.300;12.394;2022-09-09T05:29:09;14.40;99.90
25328;DHT22;13279;51.300;12.394;2022-09-09T05:31:37;14.40;99.90
25328;DHT22;13279;51.300;12.394;2022-09-09T05:34:10;14.50;99.90
25328;DHT22;13279;51.300;12.394;2022-09-09T05:36:37;14.60;99.90
25328;DHT22;13279;51.300;12.394;2022-09-09T05:39:05;14.60;99.90
25328;DHT22;13279;51.300;12.394;2022-09-09T05:41:34;14.70;99.90
25328;DHT22;13279;51.300;12.394;2022-09-09T05:44:02;14.70;99.90
25328;DHT22;13279;51.300;12.394;2022-09-09T05:46:36;14.80;99.90
25328;DHT22;13279;51.300;12.394;2022-09-09T05:49:03;14.80;99.90
25328;DHT22;13279;51.300;12.394;2022-09-09T05:51:32;14.90;99.90
25328;DHT22;13279;51.300;12.394;2022-09-09T05:54:10;14.90;99.90
25328;DHT22;13279;51.300;12.394;2022-09-09T05:56:42;15.00;99.90
25328;DHT22;13279;51.300;12.394;2022-09-09T05:59:10;15.00;99.90
25328;DHT22;13279;51.300;12.394;2022-09-09T06:01:40;15.10;99.90
25328;DHT22;13279;51.300;12.394;2022-09-09T06:04:15;15.20;99.90
25328;DHT22;13279;51.300;12.394;2022-09-09T06:06:44;15.20;99.90
25328;DHT22;13279;51.300;12.394;2022-09-09T06:09:15;15.30;99.90
25328;DHT22;13279;51.300;12.394;2022-09-09T06:11:43;15.30;99.90
25328;DHT22;13279;51.300;12.394;2022-09-09T06:14:13;15.30;99.90
25328;DHT22;13279;51.300;12.394;2022-09-09T06:16:45;15.40;99.90
25328;DHT22;13279;51.300;12.394;2022-09-09T06:19:25;15.50;99.90
25328;DHT22;13279;51.300;12.394;2022-09-09T06:21:55;15.60;99.90
25328;DHT22;13279;51.300;12.394;2022-09-09T06:24:23;15.60;99.90
25328;DHT22;13279;51.300;12.394;2022-09-09T06:26:50;15.70;99.90
25328;DHT22;13279;51.300;12.394;2022-09-09T06:29:22;15.70;99.90
25328;DHT22;13279;51.300;12.394;2022-09-09T06:31:53;15.80;99.90
25328;DHT22;13279;51.300;12.394;2022-09-09T06:34:26;15.80;99.90
25328;DHT22;13279;51.300;12.394;2022-09-09T06:36:56;15.90;99.90
25328;DHT22;13279;51.300;12.394;2022-09-09T06:39:25;15.90;99.90
25328;DHT22;13279;51.300;12.394;2022-09-09T06:41:54;15.90;99.90
25328;DHT22;13279;51.300;12.394;2022-09-09T06:44:43;16.00;99.90
25328;DHT22;13279;51.300;12.394;2022-09-09T06:47:18;16.00;99.90
25328;DHT22;13279;51.300;12.394;2022-09-09T06:49:47;16.10;99.90
25328;DHT22;13279;51.300;12.394;2022-09-09T06:52:15;16.20;99.90
25328;DHT22;13279;51.300;12.394;2022-09-09T06:54:44;16.30;99.90
25328;DHT22;13279;51.300;12.394;2022-09-09T06:57:12;16.30;99.90
25328;DHT22;13279;51.300;12.394;2022-09-09T06:59:40;16.40;99.90
25328;DHT22;13279;51.300;12.394;2022-09-09T07:02:08;16.50;99.90
25328;DHT22;13279;51.300;12.394;2022-09-09T07:04:37;16.60;99.90
25328;DHT22;13279;51.300;12.394;2022-09-09T07:07:05;16.90;99.90
25328;DHT22;13279;51.300;12.394;2022-09-09T07:09:33;17.10;99.90
25328;DHT22;13279;51.300;12.394;2022-09-09T07:12:02;17.10;99.90
25328;DHT22;13279;51.300;12.394;2022-09-09T07:14:36;17.10;99.90
25328;DHT22;13279;51.300;12.394;2022-09-09T07:17:06;17.20;99.90
25328;DHT22;13279;51.300;12.394;2022-09-09T07:19:39;17.20;99.90
25328;DHT22;13279;51.300;12.394;2022-09-09T07:22:06;17.30;99.90
25328;DHT22;13279;51.300;12.394;2022-09-09T07:24:35;17.60;99.90
25328;DHT22;13279;51.300;12.394;2022-09-09T07:27:03;17.80;99.90
25328;DHT22;13279;51.300;12.394;2022-09-09T07:29:31;18.20;52.10
25328;DHT22;13279;51.300;12.394;2022-09-09T07:31:59;18.50;1.00
25328;DHT22;13279;51.300;12.394;2022-09-09T07:34:32;18.60;1.00
25328;DHT22;13279;51.300;12.394;2022-09-09T07:37:01;18.80;1.00
25328;DHT22;13279;51.300;12.394;2022-09-09T07:39:29;18.80;1.00
25328;DHT22;13279;51.300;12.394;2022-09-09T07:41:57;18.80;1.00
25328;DHT22;13279;51.300;12.394;2022-09-09T07:44:26;18.70;1.00
25328;DHT22;13279;51.300;12.394;2022-09-09T07:47:00;18.60;1.00
25328;DHT22;13279;51.300;12.394;2022-09-09T07:49:34;18.60;1.00
25328;DHT22;13279;51.300;12.394;2022-09-09T07:52:05;18.60;1.00
25328;DHT22;13279;51.300;12.394;2022-09-09T07:54:33;18.70;1.00
25328;DHT22;13279;51.300;12.394;2022-09-09T07:57:03;18.90;1.00
25328;DHT22;13279;51.300;12.394;2022-09-09T07:59:33;19.20;1.00
25328;DHT22;13279;51.300;12.394;2022-09-09T08:02:02;19.50;1.00
25328;DHT22;13279;51.300;12.394;2022-09-09T08:04:33;19.80;1.00
25328;DHT22;13279;51.300;12.394;2022-09-09T08:07:04;20.20;1.00
25328;DHT22;13279;51.300;12.394;2022-09-09T08:09:39;20.50;1.00
25328;DHT22;13279;51.300;12.394;2022-09-09T08:12:15;20.80;99.90
25328;DHT22;13279;51.300;12.394;2022-09-09T08:14:43;20.60;99.90
25328;DHT22;13279;51.300;12.394;2022-09-09T08:17:11;20.50;99.90
25328;DHT22;13279;51.300;12.394;2022-09-09T08:19:38;20.60;99.90
25328;DHT22;13279;51.300;12.394;2022-09-09T08:22:14;20.50;99.90
25328;DHT22;13279;51.300;12.394;2022-09-09T08:24:42;20.40;99.90
25328;DHT22;13279;51.300;12.394;2022-09-09T08:27:09;20.30;99.90
25328;DHT22;13279;51.300;12.394;2022-09-09T08:29:38;20.20;1.00
25328;DHT22;13279;51.300;12.394;2022-09-09T08:32:06;20.30;99.90
25328;DHT22;13279;51.300;12.394;2022-09-09T08:34:35;20.30;1.00
25328;DHT22;13279;51.300;12.394;2022-09-09T08:37:08;20.20;99.90
25328;DHT22;13279;51.300;12.394;2022-09-09T08:39:40;20.20;99.90
25328;DHT22;13279;51.300;12.394;2022-09-09T08:42:30;20.00;1.00
25328;DHT22;13279;51.300;12.394;2022-09-09T08:45:15;19.90;1.00
25328;DHT22;13279;51.300;12.394;2022-09-09T08:47:57;19.80;1.00
25328;DHT22;13279;51.300;12.394;2022-09-09T08:50:30;19.60;1.00
25328;DHT22;13279;51.300;12.394;2022-09-09T08:53:08;19.80;1.00
25328;DHT22;13279;51.300;12.394;2022-09-09T08:55:43;20.20;1.00
25328;DHT22;13279;51.300;12.394;2022-09-09T08:58:14;20.40;1.00
25328;DHT22;13279;51.300;12.394;2022-09-09T09:01:09;20.70;1.00
25328;DHT22;13279;51.300;12.394;2022-09-09T09:03:51;21.10;99.90
25328;DHT22;13279;51.300;12.394;2022-09-09T09:06:31;21.30;1.00
25328;DHT22;13279;51.300;12.394;2022-09-09T09:09:10;21.40;1.00
25328;DHT22;13279;51.300;12.394;2022-09-09T09:11:44;21.40;1.00
25328;DHT22;13279;51.300;12.394;2022-09-09T09:14:18;21.70;1.00
25328;DHT22;13279;51.300;12.394;2022-09-09T09:16:53;21.90;1.00
25328;DHT22;13279;51.300;12.394;2022-09-09T09:19:22;22.00;1.00
25328;DHT22;13279;51.300;12.394;2022-09-09T09:21:59;22.30;1.00
25328;DHT22;13279;51.300;12.394;2022-09-09T09:24:39;22.30;1.00
25328;DHT22;13279;51.300;12.394;2022-09-09T09:27:13;22.40;99.90
25328;DHT22;13279;51.300;12.394;2022-09-09T09:29:48;22.70;99.90
25328;DHT22;13279;51.300;12.394;2022-09-09T09:32:18;22.50;1.00
25328;DHT22;13279;51.300;12.394;2022-09-09T09:34:50;22.40;1.00
25328;DHT22;13279;51.300;12.394;2022-09-09T09:37:26;22.30;1.00
25328;DHT22;13279;51.300;12.394;2022-09-09T09:39:54;22.20;1.00
25328;DHT22;13279;51.300;12.394;2022-09-09T09:42:23;22.10;6.70
25328;DHT22;13279;51.300;12.394;2022-09-09T09:44:55;22.20;1.00
25328;DHT22;13279;51.300;12.394;2022-09-09T09:47:23;22.20;1.00
25328;DHT22;13279;51.300;12.394;2022-09-09T09:50:19;22.00;36.20
25328;DHT22;13279;51.300;12.394;2022-09-09T09:52:54;21.80;1.00
25328;DHT22;13279;51.300;12.394;2022-09-09T09:55:24;22.10;1.00
25328;DHT22;13279;51.300;12.394;2022-09-09T09:58:01;22.30;1.00
25328;DHT22;13279;51.300;12.394;2022-09-09T10:00:29;22.30;1.00
25328;DHT22;13279;51.300;12.394;2022-09-09T10:03:17;22.50;1.00
25328;DHT22;13279;51.300;12.394;2022-09-09T10:05:48;22.60;1.00
25328;DHT22;13279;51.300;12.394;2022-09-09T10:08:17;22.90;1.00
25328;DHT22;13279;51.300;12.394;2022-09-09T10:10:59;23.10;1.00
25328;DHT22;13279;51.300;12.394;2022-09-09T10:13:36;23.20;99.90
25328;DHT22;13279;51.300;12.394;2022-09-09T10:16:18;23.50;99.90
25328;DHT22;13279;51.300;12.394;2022-09-09T10:18:58;23.60;99.90
25328;DHT22;13279;51.300;12.394;2022-09-09T10:21:42;23.50;59.10
25328;DHT22;13279;51.300;12.394;2022-09-09T10:24:34;23.40;99.90
25328;DHT22;13279;51.300;12.394;2022-09-09T10:27:13;23.40;1.00
25328;DHT22;13279;51.300;12.394;2022-09-09T10:29:55;23.70;1.00
25328;DHT22;13279;51.300;12.394;2022-09-09T10:32:45;24.00;1.00
25328;DHT22;13279;51.300;12.394;2022-09-09T10:35:26;24.20;1.00
25328;DHT22;13279;51.300;12.394;2022-09-09T10:38:14;24.20;1.00
25328;DHT22;13279;51.300;12.394;2022-09-09T10:41:00;24.00;1.00
25328;DHT22;13279;51.300;12.394;2022-09-09T10:43:51;24.10;99.90
25328;DHT22;13279;51.300;12.394;2022-09-09T10:46:28;23.20;99.90
25328;DHT22;13279;51.300;12.394;2022-09-09T10:49:06;23.30;1.00
25328;DHT22;13279;51.300;12.394;2022-09-09T10:51:40;23.20;1.00
25328;DHT22;13279;51.300;12.394;2022-09-09T10:54:31;23.30;1.00
25328;DHT22;13279;51.300;12.394;2022-09-09T10:57:11;23.30;1.00
25328;DHT22;13279;51.300;12.394;2022-09-09T10:59:45;23.20;1.00
25328;DHT22;13279;51.300;12.394;2022-09-09T11:02:18;23.00;1.00
25328;DHT22;13279;51.300;12.394;2022-09-09T11:04:51;22.70;1.00
25328;DHT22;13279;51.300;12.394;2022-09-09T11:07:26;22.80;99.90
25328;DHT22;13279;51.300;12.394;2022-09-09T11:09:59;23.10;1.00
25328;DHT22;13279;51.300;12.394;2022-09-09T11:12:30;23.10;99.90
25328;DHT22;13279;51.300;12.394;2022-09-09T11:15:03;23.30;1.00
25328;DHT22;13279;51.300;12.394;2022-09-09T11:17:39;23.30;1.00
25328;DHT22;13279;51.300;12.394;2022-09-09T11:20:12;23.20;1.00
25328;DHT22;13279;51.300;12.394;2022-09-09T11:22:45;23.00;1.00
25328;DHT22;13279;51.300;12.394;2022-09-09T11:25:17;23.10;1.00
25328;DHT22;13279;51.300;12.394;2022-09-09T11:28:00;23.20;1.00
25328;DHT22;13279;51.300;12.394;2022-09-09T11:30:39;23.10;1.00
25328;DHT22;13279;51.300;12.394;2022-09-09T11:33:37;22.70;93.70
25328;DHT22;13279;51.300;12.394;2022-09-09T11:36:32;22.40;1.00
25328;DHT22;13279;51.300;12.394;2022-09-09T11:39:12;22.50;1.00
25328;DHT22;13279;51.300;12.394;2022-09-09T11:41:47;22.70;99.90
25328;DHT22;13279;51.300;12.394;2022-09-09T11:44:19;23.30;1.00
25328;DHT22;13279;51.300;12.394;2022-09-09T11:46:50;24.00;1.00
25328;DHT22;13279;51.300;12.394;2022-09-09T11:49:27;24.20;1.00
25328;DHT22;13279;51.300;12.394;2022-09-09T11:51:57;24.40;99.90
25328;DHT22;13279;51.300;12.394;2022-09-09T11:54:30;24.20;99.90
25328;DHT22;13279;51.300;12.394;2022-09-09T11:56:58;23.50;99.90
25328;DHT22;13279;51.300;12.394;2022-09-09T11:59:27;23.30;15.90
25328;DHT22;13279;51.300;12.394;2022-09-09T12:01:57;23.20;1.00
25328;DHT22;13279;51.300;12.394;2022-09-09T12:04:33;23.40;1.00
25328;DHT22;13279;51.300;12.394;2022-09-09T12:07:05;23.50;1.00
25328;DHT22;13279;51.300;12.394;2022-09-09T12:09:50;23.40;1.00
25328;DHT22;13279;51.300;12.394;2022-09-09T12:12:29;23.50;1.00
25328;DHT22;13279;51.300;12.394;2022-09-09T12:15:00;23.30;1.00
25328;DHT22;13279;51.300;12.394;2022-09-09T12:17:30;23.60;99.90
25328;DHT22;13279;51.300;12.394;2022-09-09T12:20:13;23.60;99.90
25328;DHT22;13279;51.300;12.394;2022-09-09T12:22:53;23.60;1.00
25328;DHT22;13279;51.300;12.394;2022-09-09T12:25:32;23.30;99.90
25328;DHT22;13279;51.300;12.394;2022-09-09T12:28:06;23.40;99.90
25328;DHT22;13279;51.300;12.394;2022-09-09T12:30:53;23.30;99.90
25328;DHT22;13279;51.300;12.394;2022-09-09T12:33:22;23.40;1.00
25328;DHT22;13279;51.300;12.394;2022-09-09T12:35:55;23.30;1.00
25328;DHT22;13279;51.300;12.394;2022-09-09T12:38:30;23.50;1.00
25328;DHT22;13279;51.300;12.394;2022-09-09T12:40:59;24.00;99.90
25328;DHT22;13279;51.300;12.394;2022-09-09T12:43:28;24.40;1.00
25328;DHT22;13279;51.300;12.394;2022-09-09T12:45:59;24.90;1.00
25328;DHT22;13279;51.300;12.394;2022-09-09T12:48:33;25.30;1.00
25328;DHT22;13279;51.300;12.394;2022-09-09T12:51:05;25.80;1.00
25328;DHT22;13279;51.300;12.394;2022-09-09T12:53:36;25.70;1.00
25328;DHT22;13279;51.300;12.394;2022-09-09T12:56:07;25.80;1.00
25328;DHT22;13279;51.300;12.394;2022-09-09T12:58:37;25.60;1.00
25328;DHT22;13279;51.300;12.394;2022-09-09T13:01:17;25.60;1.00
25328;DHT22;13279;51.300;12.394;2022-09-09T13:03:45;25.70;1.00
25328;DHT22;13279;51.300;12.394;2022-09-09T13:06:20;25.30;1.00
25328;DHT22;13279;51.300;12.394;2022-09-09T13:08:56;25.20;1.00
25328;DHT22;13279;51.300;12.394;2022-09-09T13:11:27;25.40;1.00
25328;DHT22;13279;51.300;12.394;2022-09-09T13:13:57;25.70;1.00
25328;DHT22;13279;51.300;12.394;2022-09-09T13:16:29;26.20;99.90
25328;DHT22;13279;51.300;12.394;2022-09-09T13:18:58;26.30;1.00
25328;DHT22;13279;51.300;12.394;2022-09-09T13:21:37;26.20;1.00
25328;DHT22;13279;51.300;12.394;2022-09-09T13:24:06;25.90;1.00
25328;DHT22;13279;51.300;12.394;2022-09-09T13:26:36;25.20;1.00
25328;DHT22;13279;51.300;12.394;2022-09-09T13:29:16;24.80;32.10
25328;DHT22;13279;51.300;12.394;2022-09-09T13:31:45;24.30;1.00
25328;DHT22;13279;51.300;12.394;2022-09-09T13:34:13;23.90;1.00
25328;DHT22;13279;51.300;12.394;2022-09-09T13:36:48;23.60;99.90
25328;DHT22;13279;51.300;12.394;2022-09-09T13:39:17;23.40;99.90
25328;DHT22;13279;51.300;12.394;2022-09-09T13:41:46;23.30;99.90
25328;DHT22;13279;51.300;12.394;2022-09-09T13:44:20;23.30;98.70
25328;DHT22;13279;51.300;12.394;2022-09-09T13:47:00;23.30;1.00
25328;DHT22;13279;51.300;12.394;2022-09-09T13:49:30;23.20;1.00
25328;DHT22;13279;51.300;12.394;2022-09-09T13:52:08;23.20;1.00
25328;DHT22;13279;51.300;12.394;2022-09-09T13:54:37;23.00;1.00
25328;DHT22;13279;51.300;12.394;2022-09-09T13:57:05;22.80;1.00
25328;DHT22;13279;51.300;12.394;2022-09-09T13:59:33;22.10;1.00
25328;DHT22;13279;51.300;12.394;2022-09-09T14:02:00;20.40;99.90
25328;DHT22;13279;51.300;12.394;2022-09-09T14:04:28;18.30;3.40
25328;DHT22;13279;51.300;12.394;2022-09-09T14:06:56;17.20;69.90
25328;DHT22;13279;51.300;12.394;2022-09-09T14:09:27;16.90;95.20
25328;DHT22;13279;51.300;12.394;2022-09-09T14:11:54;16.80;99.90
25328;DHT22;13279;51.300;12.394;2022-09-09T14:14:22;16.80;99.90
25328;DHT22;13279;51.300;12.394;2022-09-09T14:16:51;16.80;99.90
25328;DHT22;13279;51.300;12.394;2022-09-09T14:19:18;16.80;99.90
25328;DHT22;13279;51.300;12.394;2022-09-09T14:21:46;16.80;99.90
25328;DHT22;13279;51.300;12.394;2022-09-09T14:24:13;17.00;99.90
25328;DHT22;13279;51.300;12.394;2022-09-09T14:26:42;17.10;99.90
25328;DHT22;13279;51.300;12.394;2022-09-09T14:29:09;17.30;99.90
25328;DHT22;13279;51.300;12.394;2022-09-09T14:31:37;17.50;99.90
25328;DHT22;13279;51.300;12.394;2022-09-09T14:34:05;17.70;99.90
25328;DHT22;13279;51.300;12.394;2022-09-09T14:36:32;17.80;99.90
25328;DHT22;13279;51.300;12.394;2022-09-09T14:39:00;18.00;99.90
25328;DHT22;13279;51.300;12.394;2022-09-09T14:41:28;18.20;99.90
25328;DHT22;13279;51.300;12.394;2022-09-09T14:43:57;18.30;99.90
25328;DHT22;13279;51.300;12.394;2022-09-09T14:46:25;18.40;99.90
25328;DHT22;13279;51.300;12.394;2022-09-09T14:48:54;18.60;99.90
25328;DHT22;13279;51.300;12.394;2022-09-09T14:51:23;18.70;99.90
25328;DHT22;13279;51.300;12.394;2022-09-09T14:53:54;18.80;99.90
25328;DHT22;13279;51.300;12.394;2022-09-09T14:56:24;18.90;99.90
25328;DHT22;13279;51.300;12.394;2022-09-09T14:58:53;19.10;99.90
25328;DHT22;13279;51.300;12.394;2022-09-09T15:01:23;19.30;99.90
25328;DHT22;13279;51.300;12.394;2022-09-09T15:03:54;19.60;99.90
25328;DHT22;13279;51.300;12.394;2022-09-09T15:06:24;20.40;99.90
25328;DHT22;13279;51.300;12.394;2022-09-09T15:08:52;21.50;43.80
25328;DHT22;13279;51.300;12.394;2022-09-09T15:11:21;22.70;1.00
25328;DHT22;13279;51.300;12.394;2022-09-09T15:13:51;23.30;1.00
25328;DHT22;13279;51.300;12.394;2022-09-09T15:16:20;23.50;1.00
25328;DHT22;13279;51.300;12.394;2022-09-09T15:18:51;23.60;99.90
25328;DHT22;13279;51.300;12.394;2022-09-09T15:21:22;23.80;1.00
25328;DHT22;13279;51.300;12.394;2022-09-09T15:23:53;24.30;99.90
25328;DHT22;13279;51.300;12.394;2022-09-09T15:26:21;24.50;1.00
25328;DHT22;13279;51.300;12.394;2022-09-09T15:28:49;24.40;1.00
25328;DHT22;13279;51.300;12.394;2022-09-09T15:31:19;23.20;1.00
25328;DHT22;13279;51.300;12.394;2022-09-09T15:33:49;22.40;99.90
25328;DHT22;13279;51.300;12.394;2022-09-09T15:36:18;22.20;99.90
25328;DHT22;13279;51.300;12.394;2022-09-09T15:38:46;22.20;99.90
25328;DHT22;13279;51.300;12.394;2022-09-09T15:41:14;22.60;99.90
25328;DHT22;13279;51.300;12.394;2022-09-09T15:43:43;23.60;1.00
25328;DHT22;13279;51.300;12.394;2022-09-09T15:46:26;24.40;99.90
25328;DHT22;13279;51.300;12.394;2022-09-09T15:48:57;25.30;1.00
25328;DHT22;13279;51.300;12.394;2022-09-09T15:51:25;26.10;1.00
25328;DHT22;13279;51.300;12.394;2022-09-09T15:53:54;26.60;1.00
25328;DHT22;13279;51.300;12.394;2022-09-09T15:56:23;26.90;1.00
25328;DHT22;13279;51.300;12.394;2022-09-09T15:58:51;27.00;99.90
25328;DHT22;13279;51.300;12.394;2022-09-09T16:01:20;26.80;65.00